Climatologie pour Saint-Brevin les Pins
Jour • Résumé pour février 11, 2018 Système :  Mixte    Anglais   Métrique
« - 1 jour
+ 1 jour »
Jour Semaine Mois Année Personnalisé
  Maximum : Minimum : Moyenne :
Température sous abri : TemperatureC °F /  -17.8 °C 1.6 °F /  -16.9 °C 7.6 °F /  -13.6 °C
Point de rosée : DewpointC °F /  -17.8 °C 0.1 °F /  -17.7 °C 5.6 °F /  -14.7 °C
Humidité : Humidity % 70 % 88 %
Vitesse du vent : WindSpeedKMH mph /  0 km/h - 7.8 mph /  12.6 km/h
Rafale : WindSpeedGustKMH mph /  0 km/h - -
Direction :- - NW
Pression : PressurehPa in /  0 hPa 1009.4 in /  34178.3 hPa -
Précipitations : 0.5 in /  12.7 mm    
Historical Graphs
 
 
Tableau de données pour février 11, 2018
Heure Tempé Pt rosée Pression Vent Vitesse Rafale Humidité Taux pluie (/hr) Soleil
TemperatureC °F /  -17.8 °C DewpointC °F /  -17.8 °C PressurehPa in /  0 hPa Calm     Humidity % HourlyPrecipMM in /  0 mm SolarRadiationWatts/m^2 W/m2 Conditions
00:00 9.8 °F /  -12.3 °C 9.5 °F /  -12.5 °C 1011.7 in /  34256.2 hPa West 9.7 mph /  15.6 km/h 32.2 mph /  51.8 km/h 98 % 0.8 in /  20.32 mm 0 W/m2
00:05 9.8 °F /  -12.3 °C 9.5 °F /  -12.5 °C 1011.7 in /  34256.2 hPa West 12.9 mph /  20.8 km/h 24.1 mph /  38.8 km/h 98 % 0.8 in /  20.32 mm 0 W/m2
00:10 9.9 °F /  -12.3 °C 9.6 °F /  -12.4 °C 1011.4 in /  34246 hPa NW 16.1 mph /  25.9 km/h 25.7 mph /  41.4 km/h 98 % 0.8 in /  20.32 mm 0 W/m2
00:15 9.9 °F /  -12.3 °C 9.6 °F /  -12.4 °C 1011.4 in /  34246 hPa West 11.3 mph /  18.2 km/h 25.7 mph /  41.4 km/h 98 % 0.8 in /  20.32 mm 0 W/m2
00:20 9.9 °F /  -12.3 °C 9.6 °F /  -12.4 °C 1011.4 in /  34246 hPa West 8.0 mph /  12.9 km/h 29.0 mph /  46.7 km/h 98 % 0.8 in /  20.32 mm 0 W/m2
00:25 9.9 °F /  -12.3 °C 9.6 °F /  -12.4 °C 1011.4 in /  34246 hPa West 11.3 mph /  18.2 km/h 29.0 mph /  46.7 km/h 98 % 0.5 in /  12.7 mm 0 W/m2
00:30 9.9 °F /  -12.3 °C 9.6 °F /  -12.4 °C 1011.1 in /  34235.8 hPa WNW 11.3 mph /  18.2 km/h 29.0 mph /  46.7 km/h 98 % 0.5 in /  12.7 mm 0 W/m2
00:35 9.9 °F /  -12.3 °C 9.6 °F /  -12.4 °C 1011.1 in /  34235.8 hPa WSW 11.3 mph /  18.2 km/h 29.0 mph /  46.7 km/h 98 % 0.5 in /  12.7 mm 0 W/m2
00:40 10.0 °F /  -12.2 °C 9.7 °F /  -12.4 °C 1011.1 in /  34235.8 hPa WNW 14.5 mph /  23.3 km/h 32.2 mph /  51.8 km/h 98 % 0.3 in /  7.62 mm 0 W/m2
00:45 10.1 °F /  -12.2 °C 9.8 °F /  -12.3 °C 1011.1 in /  34235.8 hPa WSW 8.0 mph /  12.9 km/h 32.2 mph /  51.8 km/h 98 % 0.3 in /  7.62 mm 0 W/m2
00:50 9.9 °F /  -12.3 °C 9.6 °F /  -12.4 °C 1011.1 in /  34235.8 hPa WSW 6.4 mph /  10.3 km/h 22.5 mph /  36.2 km/h 98 % 0.0 in /  0 mm 0 W/m2
00:55 10.0 °F /  -12.2 °C 9.7 °F /  -12.4 °C 1011.1 in /  34235.8 hPa WNW 8.0 mph /  12.9 km/h 22.5 mph /  36.2 km/h 98 % 0.0 in /  0 mm 0 W/m2
01:00 10.0 °F /  -12.2 °C 9.7 °F /  -12.4 °C 1011.1 in /  34235.8 hPa NW 11.3 mph /  18.2 km/h 22.5 mph /  36.2 km/h 98 % 0.0 in /  0 mm 0 W/m2
01:10 10.0 °F /  -12.2 °C 9.7 °F /  -12.4 °C 1010.7 in /  34222.3 hPa West 8.0 mph /  12.9 km/h 20.9 mph /  33.6 km/h 98 % 0.0 in /  0 mm 0 W/m2
01:15 10.0 °F /  -12.2 °C 9.7 °F /  -12.4 °C 1010.7 in /  34222.3 hPa WNW 8.0 mph /  12.9 km/h 16.1 mph /  25.9 km/h 98 % 0.0 in /  0 mm 0 W/m2
01:20 9.9 °F /  -12.3 °C 9.6 °F /  -12.4 °C 1010.7 in /  34222.3 hPa NW 14.5 mph /  23.3 km/h 16.1 mph /  25.9 km/h 98 % 0.0 in /  0 mm 0 W/m2
01:25 9.9 °F /  -12.3 °C 9.6 °F /  -12.4 °C 1010.7 in /  34222.3 hPa WNW 11.3 mph /  18.2 km/h 19.3 mph /  31.1 km/h 98 % 0.0 in /  0 mm 0 W/m2
01:30 9.9 °F /  -12.3 °C 9.6 °F /  -12.4 °C 1010.7 in /  34222.3 hPa WNW 6.4 mph /  10.3 km/h 19.3 mph /  31.1 km/h 98 % 0.0 in /  0 mm 0 W/m2
01:35 10.0 °F /  -12.2 °C 9.7 °F /  -12.4 °C 1010.7 in /  34222.3 hPa West 9.7 mph /  15.6 km/h 16.1 mph /  25.9 km/h 98 % 0.0 in /  0 mm 0 W/m2
01:40 9.9 °F /  -12.3 °C 9.6 °F /  -12.4 °C 1010.7 in /  34222.3 hPa West 3.2 mph /  5.1 km/h 17.7 mph /  28.5 km/h 98 % 0.0 in /  0 mm 0 W/m2
01:45 10.0 °F /  -12.2 °C 9.7 °F /  -12.4 °C 1010.7 in /  34222.3 hPa WSW 8.0 mph /  12.9 km/h 19.3 mph /  31.1 km/h 98 % 0.0 in /  0 mm 0 W/m2
01:50 10.0 °F /  -12.2 °C 9.7 °F /  -12.4 °C 1010.4 in /  34212.1 hPa WNW 6.4 mph /  10.3 km/h 20.9 mph /  33.6 km/h 98 % 0.0 in /  0 mm 0 W/m2
01:55 10.0 °F /  -12.2 °C 9.7 °F /  -12.4 °C 1010.4 in /  34212.1 hPa WSW 9.7 mph /  15.6 km/h 22.5 mph /  36.2 km/h 98 % 0.0 in /  0 mm 0 W/m2
02:00 10.0 °F /  -12.2 °C 9.7 °F /  -12.4 °C 1010.4 in /  34212.1 hPa WNW 6.4 mph /  10.3 km/h 24.1 mph /  38.8 km/h 98 % 0.0 in /  0 mm 0 W/m2
02:05 10.0 °F /  -12.2 °C 9.7 °F /  -12.4 °C 1010.4 in /  34212.1 hPa WNW 3.2 mph /  5.1 km/h 24.1 mph /  38.8 km/h 98 % 0.0 in /  0 mm 0 W/m2
02:10 9.9 °F /  -12.3 °C 9.6 °F /  -12.4 °C 1010.4 in /  34212.1 hPa West 3.2 mph /  5.1 km/h 19.3 mph /  31.1 km/h 98 % 0.0 in /  0 mm 0 W/m2
02:15 9.9 °F /  -12.3 °C 9.6 °F /  -12.4 °C 1010.4 in /  34212.1 hPa West 12.9 mph /  20.8 km/h 19.3 mph /  31.1 km/h 98 % 0.0 in /  0 mm 0 W/m2
02:20 9.8 °F /  -12.3 °C 9.5 °F /  -12.5 °C 1010.4 in /  34212.1 hPa WNW 12.9 mph /  20.8 km/h 22.5 mph /  36.2 km/h 98 % 0.0 in /  0 mm 0 W/m2
02:25 9.8 °F /  -12.3 °C 9.5 °F /  -12.5 °C 1010.4 in /  34212.1 hPa NW 11.3 mph /  18.2 km/h 22.5 mph /  36.2 km/h 98 % 0.0 in /  0 mm 0 W/m2
02:30 9.8 °F /  -12.3 °C 9.5 °F /  -12.5 °C 1010.0 in /  34198.6 hPa West 3.2 mph /  5.1 km/h 14.5 mph /  23.3 km/h 98 % 0.0 in /  0 mm 0 W/m2
02:35 9.9 °F /  -12.3 °C 9.6 °F /  -12.4 °C 1010.0 in /  34198.6 hPa WNW 9.7 mph /  15.6 km/h 20.9 mph /  33.6 km/h 98 % 0.0 in /  0 mm 0 W/m2
02:40 9.9 °F /  -12.3 °C 9.6 °F /  -12.4 °C 1010.0 in /  34198.6 hPa WNW 4.8 mph /  7.7 km/h 20.9 mph /  33.6 km/h 98 % 0.0 in /  0 mm 0 W/m2
02:45 10.0 °F /  -12.2 °C 9.7 °F /  -12.4 °C 1010.0 in /  34198.6 hPa West 9.7 mph /  15.6 km/h 20.9 mph /  33.6 km/h 98 % 0.0 in /  0 mm 0 W/m2
02:50 9.9 °F /  -12.3 °C 9.6 °F /  -12.4 °C 1010.0 in /  34198.6 hPa WNW 6.4 mph /  10.3 km/h 20.9 mph /  33.6 km/h 98 % 0.3 in /  7.62 mm 0 W/m2
02:55 9.9 °F /  -12.3 °C 9.6 °F /  -12.4 °C 1010.0 in /  34198.6 hPa West 9.7 mph /  15.6 km/h 20.9 mph /  33.6 km/h 98 % 0.3 in /  7.62 mm 0 W/m2
03:00 9.9 °F /  -12.3 °C 9.6 °F /  -12.4 °C 1010.0 in /  34198.6 hPa WNW 14.5 mph /  23.3 km/h 19.3 mph /  31.1 km/h 98 % 0.3 in /  7.62 mm 0 W/m2
03:05 9.9 °F /  -12.3 °C 9.6 °F /  -12.4 °C 1010.0 in /  34198.6 hPa WNW 9.7 mph /  15.6 km/h 25.7 mph /  41.4 km/h 98 % 0.3 in /  7.62 mm 0 W/m2
03:10 9.9 °F /  -12.3 °C 9.6 °F /  -12.4 °C 1010.0 in /  34198.6 hPa West 6.4 mph /  10.3 km/h 25.7 mph /  41.4 km/h 98 % 0.3 in /  7.62 mm 0 W/m2
03:15 9.9 °F /  -12.3 °C 9.6 °F /  -12.4 °C 1010.0 in /  34198.6 hPa WNW 8.0 mph /  12.9 km/h 17.7 mph /  28.5 km/h 98 % 0.3 in /  7.62 mm 0 W/m2
03:20 9.9 °F /  -12.3 °C 9.6 °F /  -12.4 °C 1010.0 in /  34198.6 hPa West 8.0 mph /  12.9 km/h 19.3 mph /  31.1 km/h 98 % 0.3 in /  7.62 mm 0 W/m2
03:25 9.9 °F /  -12.3 °C 9.6 °F /  -12.4 °C 1009.7 in /  34188.4 hPa WNW 3.2 mph /  5.1 km/h 22.5 mph /  36.2 km/h 98 % 0.3 in /  7.62 mm 0 W/m2
03:30 9.9 °F /  -12.3 °C 9.6 °F /  -12.4 °C 1009.7 in /  34188.4 hPa West 6.4 mph /  10.3 km/h 22.5 mph /  36.2 km/h 98 % 0.3 in /  7.62 mm 0 W/m2
03:35 9.9 °F /  -12.3 °C 9.6 °F /  -12.4 °C 1009.7 in /  34188.4 hPa WNW 9.7 mph /  15.6 km/h 20.9 mph /  33.6 km/h 98 % 0.3 in /  7.62 mm 0 W/m2
03:40 9.9 °F /  -12.3 °C 9.6 °F /  -12.4 °C 1009.7 in /  34188.4 hPa NW 6.4 mph /  10.3 km/h 20.9 mph /  33.6 km/h 98 % 0.5 in /  12.7 mm 0 W/m2
03:45 9.9 °F /  -12.3 °C 9.6 °F /  -12.4 °C 1009.4 in /  34178.3 hPa WNW 3.2 mph /  5.1 km/h 20.9 mph /  33.6 km/h 98 % 0.3 in /  7.62 mm 0 W/m2
03:50 9.9 °F /  -12.3 °C 9.6 °F /  -12.4 °C 1009.7 in /  34188.4 hPa WNW 12.9 mph /  20.8 km/h 20.9 mph /  33.6 km/h 98 % 0.3 in /  7.62 mm 0 W/m2
03:55 9.9 °F /  -12.3 °C 9.6 °F /  -12.4 °C 1009.4 in /  34178.3 hPa WNW 6.4 mph /  10.3 km/h 24.1 mph /  38.8 km/h 98 % 0.3 in /  7.62 mm 0 W/m2
04:00 9.8 °F /  -12.3 °C 9.5 °F /  -12.5 °C 1009.4 in /  34178.3 hPa WNW 4.8 mph /  7.7 km/h 24.1 mph /  38.8 km/h 98 % 0.3 in /  7.62 mm 0 W/m2
04:05 9.9 °F /  -12.3 °C 9.6 °F /  -12.4 °C 1009.4 in /  34178.3 hPa NW 11.3 mph /  18.2 km/h 20.9 mph /  33.6 km/h 98 % 0.3 in /  7.62 mm 0 W/m2
04:10 9.9 °F /  -12.3 °C 9.6 °F /  -12.4 °C 1009.4 in /  34178.3 hPa WNW 9.7 mph /  15.6 km/h 22.5 mph /  36.2 km/h 98 % 0.3 in /  7.62 mm 0 W/m2
04:15 9.9 °F /  -12.3 °C 9.6 °F /  -12.4 °C 1009.4 in /  34178.3 hPa WSW 6.4 mph /  10.3 km/h 22.5 mph /  36.2 km/h 98 % 0.5 in /  12.7 mm 0 W/m2
04:20 9.9 °F /  -12.3 °C 9.6 °F /  -12.4 °C 1009.4 in /  34178.3 hPa WNW 6.4 mph /  10.3 km/h 20.9 mph /  33.6 km/h 98 % 0.5 in /  12.7 mm 0 W/m2
04:25 10.0 °F /  -12.2 °C 9.7 °F /  -12.4 °C 1009.4 in /  34178.3 hPa WNW 14.5 mph /  23.3 km/h 20.9 mph /  33.6 km/h 98 % 0.5 in /  12.7 mm 0 W/m2
04:30 9.9 °F /  -12.3 °C 9.6 °F /  -12.4 °C 1009.4 in /  34178.3 hPa WNW 8.0 mph /  12.9 km/h 22.5 mph /  36.2 km/h 98 % 0.5 in /  12.7 mm 0 W/m2
04:35 9.9 °F /  -12.3 °C 9.6 °F /  -12.4 °C 1009.4 in /  34178.3 hPa WNW 14.5 mph /  23.3 km/h 25.7 mph /  41.4 km/h 98 % 0.5 in /  12.7 mm 0 W/m2
04:40 9.9 °F /  -12.3 °C 9.6 °F /  -12.4 °C 1009.4 in /  34178.3 hPa West 22.5 mph /  36.2 km/h 27.4 mph /  44.1 km/h 98 % 0.3 in /  7.62 mm 0 W/m2
04:45 10.0 °F /  -12.2 °C 9.7 °F /  -12.4 °C 1009.4 in /  34178.3 hPa NW 3.2 mph /  5.1 km/h 27.4 mph /  44.1 km/h 98 % 0.3 in /  7.62 mm 0 W/m2
04:50 10.0 °F /  -12.2 °C 9.7 °F /  -12.4 °C 1009.4 in /  34178.3 hPa NW 9.7 mph /  15.6 km/h 27.4 mph /  44.1 km/h 98 % 0.3 in /  7.62 mm 0 W/m2
04:55 9.9 °F /  -12.3 °C 9.6 °F /  -12.4 °C 1009.4 in /  34178.3 hPa NW 20.9 mph /  33.6 km/h 24.1 mph /  38.8 km/h 98 % 0.3 in /  7.62 mm 0 W/m2
05:00 9.7 °F /  -12.4 °C 9.4 °F /  -12.6 °C 1009.7 in /  34188.4 hPa WNW 8.0 mph /  12.9 km/h 27.4 mph /  44.1 km/h 98 % 0.3 in /  7.62 mm 0 W/m2
05:05 9.6 °F /  -12.4 °C 9.3 °F /  -12.6 °C 1009.7 in /  34188.4 hPa NW 8.0 mph /  12.9 km/h 27.4 mph /  44.1 km/h 98 % 0.3 in /  7.62 mm 0 W/m2
05:10 9.4 °F /  -12.6 °C 9.1 °F /  -12.7 °C 1009.7 in /  34188.4 hPa WNW 12.9 mph /  20.8 km/h 24.1 mph /  38.8 km/h 98 % 0.3 in /  7.62 mm 0 W/m2
05:15 9.3 °F /  -12.6 °C 9.0 °F /  -12.8 °C 1009.7 in /  34188.4 hPa NW 9.7 mph /  15.6 km/h 24.1 mph /  38.8 km/h 98 % 0.0 in /  0 mm 0 W/m2
05:20 9.3 °F /  -12.6 °C 9.0 °F /  -12.8 °C 1009.7 in /  34188.4 hPa West 12.9 mph /  20.8 km/h 20.9 mph /  33.6 km/h 98 % 0.0 in /  0 mm 0 W/m2
05:25 9.3 °F /  -12.6 °C 9.0 °F /  -12.8 °C 1009.7 in /  34188.4 hPa NNW 1.6 mph /  2.6 km/h 24.1 mph /  38.8 km/h 98 % 0.0 in /  0 mm 0 W/m2
05:30 9.3 °F /  -12.6 °C 9.0 °F /  -12.8 °C 1009.7 in /  34188.4 hPa NW 6.4 mph /  10.3 km/h 24.1 mph /  38.8 km/h 98 % 0.0 in /  0 mm 0 W/m2
05:35 9.2 °F /  -12.7 °C 8.9 °F /  -12.8 °C 1010.0 in /  34198.6 hPa NW 3.2 mph /  5.1 km/h 20.9 mph /  33.6 km/h 98 % 0.0 in /  0 mm 0 W/m2
05:40 9.1 °F /  -12.7 °C 8.8 °F /  -12.9 °C 1010.0 in /  34198.6 hPa NW 6.4 mph /  10.3 km/h 20.9 mph /  33.6 km/h 98 % 0.0 in /  0 mm 0 W/m2
05:45 9.1 °F /  -12.7 °C 8.8 °F /  -12.9 °C 1010.0 in /  34198.6 hPa WNW 6.4 mph /  10.3 km/h 20.9 mph /  33.6 km/h 98 % 0.0 in /  0 mm 0 W/m2
05:50 8.9 °F /  -12.8 °C 8.6 °F /  -13 °C 1010.0 in /  34198.6 hPa NW 11.3 mph /  18.2 km/h 19.3 mph /  31.1 km/h 98 % 0.0 in /  0 mm 0 W/m2
05:55 8.9 °F /  -12.8 °C 8.6 °F /  -13 °C 1010.0 in /  34198.6 hPa NW 12.9 mph /  20.8 km/h 19.3 mph /  31.1 km/h 98 % 0.0 in /  0 mm 0 W/m2
06:00 8.8 °F /  -12.9 °C 8.5 °F /  -13.1 °C 1010.0 in /  34198.6 hPa WNW 8.0 mph /  12.9 km/h 16.1 mph /  25.9 km/h 98 % 0.0 in /  0 mm 0 W/m2
06:05 8.7 °F /  -12.9 °C 8.4 °F /  -13.1 °C 1010.0 in /  34198.6 hPa WNW 11.3 mph /  18.2 km/h 14.5 mph /  23.3 km/h 98 % 0.0 in /  0 mm 0 W/m2
06:10 8.7 °F /  -12.9 °C 8.4 °F /  -13.1 °C 1010.4 in /  34212.1 hPa NW 6.4 mph /  10.3 km/h 19.3 mph /  31.1 km/h 98 % 0.0 in /  0 mm 0 W/m2
06:15 8.6 °F /  -13 °C 8.3 °F /  -13.2 °C 1010.4 in /  34212.1 hPa NNW 12.9 mph /  20.8 km/h 19.3 mph /  31.1 km/h 98 % 0.0 in /  0 mm 0 W/m2
06:20 8.6 °F /  -13 °C 8.3 °F /  -13.2 °C 1010.4 in /  34212.1 hPa NNW 8.0 mph /  12.9 km/h 12.9 mph /  20.8 km/h 98 % 0.0 in /  0 mm 0 W/m2
06:25 8.6 °F /  -13 °C 8.3 °F /  -13.2 °C 1010.4 in /  34212.1 hPa NNW 6.4 mph /  10.3 km/h 12.9 mph /  20.8 km/h 98 % 0.0 in /  0 mm 0 W/m2
06:30 8.4 °F /  -13.1 °C 8.1 °F /  -13.3 °C 1010.4 in /  34212.1 hPa NNW 8.0 mph /  12.9 km/h 22.5 mph /  36.2 km/h 98 % 0.0 in /  0 mm 0 W/m2
06:35 8.2 °F /  -13.2 °C 7.7 °F /  -13.5 °C 1010.7 in /  34222.3 hPa NW 8.0 mph /  12.9 km/h 22.5 mph /  36.2 km/h 97 % 0.0 in /  0 mm 0 W/m2
06:40 7.7 °F /  -13.5 °C 7.2 °F /  -13.8 °C 1010.7 in /  34222.3 hPa NW 4.8 mph /  7.7 km/h 20.9 mph /  33.6 km/h 97 % 0.0 in /  0 mm 0 W/m2
06:45 7.2 °F /  -13.8 °C 6.8 °F /  -14 °C 1010.7 in /  34222.3 hPa NW 4.8 mph /  7.7 km/h 20.9 mph /  33.6 km/h 97 % 0.0 in /  0 mm 0 W/m2
06:50 6.8 °F /  -14 °C 6.4 °F /  -14.2 °C 1011.1 in /  34235.8 hPa NW 14.5 mph /  23.3 km/h 17.7 mph /  28.5 km/h 97 % 0.0 in /  0 mm 0 W/m2
06:55 6.6 °F /  -14.1 °C 6.2 °F /  -14.3 °C 1011.1 in /  34235.8 hPa NW 3.2 mph /  5.1 km/h 17.7 mph /  28.5 km/h 97 % 0.0 in /  0 mm 0 W/m2
07:00 6.6 °F /  -14.1 °C 6.1 °F /  -14.4 °C 1011.1 in /  34235.8 hPa NW 9.7 mph /  15.6 km/h 22.5 mph /  36.2 km/h 97 % 0.0 in /  0 mm 0 W/m2
07:05 6.7 °F /  -14.1 °C 6.2 °F /  -14.3 °C 1011.1 in /  34235.8 hPa NW 9.7 mph /  15.6 km/h 22.5 mph /  36.2 km/h 97 % 0.0 in /  0 mm 0 W/m2
07:10 6.7 °F /  -14.1 °C 6.3 °F /  -14.3 °C 1011.4 in /  34246 hPa NW 3.2 mph /  5.1 km/h 14.5 mph /  23.3 km/h 97 % 0.0 in /  0 mm 0 W/m2
07:15 6.7 °F /  -14.1 °C 6.3 °F /  -14.3 °C 1011.1 in /  34235.8 hPa NNW 6.4 mph /  10.3 km/h 12.9 mph /  20.8 km/h 97 % 0.0 in /  0 mm 0 W/m2
07:20 6.8 °F /  -14 °C 6.4 °F /  -14.2 °C 1011.4 in /  34246 hPa NNW 1.6 mph /  2.6 km/h 12.9 mph /  20.8 km/h 97 % 0.0 in /  0 mm 0 W/m2
07:25 7.1 °F /  -13.8 °C 6.6 °F /  -14.1 °C 1011.4 in /  34246 hPa NW 9.7 mph /  15.6 km/h 12.9 mph /  20.8 km/h 97 % 0.0 in /  0 mm 0 W/m2
07:30 7.1 °F /  -13.8 °C 6.5 °F /  -14.2 °C 1011.4 in /  34246 hPa NW 6.4 mph /  10.3 km/h 12.9 mph /  20.8 km/h 96 % 0.0 in /  0 mm 0 W/m2
07:35 7.0 °F /  -13.9 °C 6.4 °F /  -14.2 °C 1011.4 in /  34246 hPa NW 1.6 mph /  2.6 km/h 11.3 mph /  18.2 km/h 96 % 0.0 in /  0 mm 0 W/m2
07:40 6.9 °F /  -13.9 °C 6.4 °F /  -14.2 °C 1011.4 in /  34246 hPa NNW 6.4 mph /  10.3 km/h 11.3 mph /  18.2 km/h 96 % 0.0 in /  0 mm 0 W/m2
07:45 6.8 °F /  -14 °C 6.2 °F /  -14.3 °C 1011.4 in /  34246 hPa NW 3.2 mph /  5.1 km/h 9.7 mph /  15.6 km/h 96 % 0.0 in /  0 mm 0 W/m2
07:50 6.6 °F /  -14.1 °C 5.9 °F /  -14.5 °C 1011.7 in /  34256.2 hPa WNW 4.8 mph /  7.7 km/h 9.7 mph /  15.6 km/h 95 % 0.0 in /  0 mm 0 W/m2
07:55 6.4 °F /  -14.2 °C 5.9 °F /  -14.5 °C 1011.7 in /  34256.2 hPa WNW 9.7 mph /  15.6 km/h 12.9 mph /  20.8 km/h 96 % 0.0 in /  0 mm 0 W/m2
08:00 6.4 °F /  -14.2 °C 5.8 °F /  -14.6 °C 1011.7 in /  34256.2 hPa NW 3.2 mph /  5.1 km/h 12.9 mph /  20.8 km/h 96 % 0.0 in /  0 mm 0 W/m2
08:05 6.3 °F /  -14.3 °C 5.6 °F /  -14.7 °C 1011.7 in /  34256.2 hPa WNW 3.2 mph /  5.1 km/h 11.3 mph /  18.2 km/h 95 % 0.0 in /  0 mm 0 W/m2
08:10 6.3 °F /  -14.3 °C 5.5 °F /  -14.7 °C 1012.1 in /  34269.7 hPa WNW 6.4 mph /  10.3 km/h 11.3 mph /  18.2 km/h 95 % 0.0 in /  0 mm 0 W/m2
08:15 6.0 °F /  -14.4 °C 5.3 °F /  -14.8 °C 1012.1 in /  34269.7 hPa WNW 4.8 mph /  7.7 km/h 9.7 mph /  15.6 km/h 95 % 0.0 in /  0 mm 0 W/m2
08:20 5.9 °F /  -14.5 °C 5.2 °F /  -14.9 °C 1012.1 in /  34269.7 hPa Calm   11.3 mph /  18.2 km/h 95 % 0.0 in /  0 mm 5 W/m2
08:25 6.1 °F /  -14.4 °C 5.3 °F /  -14.8 °C 1012.4 in /  34279.9 hPa WNW 1.6 mph /  2.6 km/h 11.3 mph /  18.2 km/h 95 % 0.0 in /  0 mm 5 W/m2
08:30 6.1 °F /  -14.4 °C 5.3 °F /  -14.8 °C 1012.4 in /  34279.9 hPa WNW 4.8 mph /  7.7 km/h 9.7 mph /  15.6 km/h 95 % 0.0 in /  0 mm 9 W/m2
08:35 6.1 °F /  -14.4 °C 5.4 °F /  -14.8 °C 1012.4 in /  34279.9 hPa WNW 6.4 mph /  10.3 km/h 12.9 mph /  20.8 km/h 95 % 0.0 in /  0 mm 12 W/m2
08:40 6.3 °F /  -14.3 °C 5.5 °F /  -14.7 °C 1012.4 in /  34279.9 hPa NNW 9.7 mph /  15.6 km/h 12.9 mph /  20.8 km/h 95 % 0.0 in /  0 mm 18 W/m2
08:45 6.4 °F /  -14.2 °C 5.7 °F /  -14.6 °C 1012.4 in /  34279.9 hPa NW 3.2 mph /  5.1 km/h 12.9 mph /  20.8 km/h 95 % 0.0 in /  0 mm 26 W/m2
08:50 6.6 °F /  -14.1 °C 5.8 °F /  -14.6 °C 1012.4 in /  34279.9 hPa WNW 3.2 mph /  5.1 km/h 12.9 mph /  20.8 km/h 95 % 0.0 in /  0 mm 28 W/m2
08:55 6.7 °F /  -14.1 °C 6.0 °F /  -14.4 °C 1012.4 in /  34279.9 hPa NW 11.3 mph /  18.2 km/h 11.3 mph /  18.2 km/h 95 % 0.0 in /  0 mm 33 W/m2
09:00 6.8 °F /  -14 °C 5.9 °F /  -14.5 °C 1012.8 in /  34293.4 hPa WNW 4.8 mph /  7.7 km/h 14.5 mph /  23.3 km/h 94 % 0.0 in /  0 mm 32 W/m2
09:05 6.7 °F /  -14.1 °C 5.8 °F /  -14.6 °C 1012.8 in /  34293.4 hPa NW 11.3 mph /  18.2 km/h 14.5 mph /  23.3 km/h 94 % 0.0 in /  0 mm 37 W/m2
09:10 6.7 °F /  -14.1 °C 5.8 °F /  -14.6 °C 1012.8 in /  34293.4 hPa NW 9.7 mph /  15.6 km/h 14.5 mph /  23.3 km/h 94 % 0.0 in /  0 mm 42 W/m2
09:15 6.7 °F /  -14.1 °C 5.8 °F /  -14.6 °C 1012.8 in /  34293.4 hPa NW 6.4 mph /  10.3 km/h 17.7 mph /  28.5 km/h 94 % 0.0 in /  0 mm 44 W/m2
09:20 6.8 °F /  -14 °C 5.7 °F /  -14.6 °C 1012.8 in /  34293.4 hPa WNW 6.4 mph /  10.3 km/h 17.7 mph /  28.5 km/h 93 % 0.0 in /  0 mm 53 W/m2
09:25 6.9 °F /  -13.9 °C 5.8 °F /  -14.6 °C 1012.8 in /  34293.4 hPa WNW 6.4 mph /  10.3 km/h 14.5 mph /  23.3 km/h 93 % 0.0 in /  0 mm 58 W/m2
09:30 6.9 °F /  -13.9 °C 5.7 °F /  -14.6 °C 1013.1 in /  34303.6 hPa NW 6.4 mph /  10.3 km/h 11.3 mph /  18.2 km/h 92 % 0.0 in /  0 mm 53 W/m2
09:35 6.9 °F /  -13.9 °C 5.7 °F /  -14.6 °C 1013.1 in /  34303.6 hPa WNW 9.7 mph /  15.6 km/h 12.9 mph /  20.8 km/h 92 % 0.0 in /  0 mm 62 W/m2
09:40 7.0 °F /  -13.9 °C 5.8 °F /  -14.6 °C 1013.1 in /  34303.6 hPa WNW 4.8 mph /  7.7 km/h 14.5 mph /  23.3 km/h 92 % 0.0 in /  0 mm 86 W/m2
09:45 7.3 °F /  -13.7 °C 6.1 °F /  -14.4 °C 1013.1 in /  34303.6 hPa NW 4.8 mph /  7.7 km/h 14.5 mph /  23.3 km/h 92 % 0.0 in /  0 mm 113 W/m2
09:50 7.4 °F /  -13.7 °C 6.1 °F /  -14.4 °C 1013.1 in /  34303.6 hPa NW 9.7 mph /  15.6 km/h 11.3 mph /  18.2 km/h 91 % 0.0 in /  0 mm 114 W/m2
09:55 7.6 °F /  -13.6 °C 6.1 °F /  -14.4 °C 1013.1 in /  34303.6 hPa NW 8.0 mph /  12.9 km/h 11.3 mph /  18.2 km/h 90 % 0.0 in /  0 mm 118 W/m2
10:00 7.7 °F /  -13.5 °C 6.1 °F /  -14.4 °C 1013.1 in /  34303.6 hPa WNW 6.4 mph /  10.3 km/h 14.5 mph /  23.3 km/h 90 % 0.0 in /  0 mm 118 W/m2
10:05 7.7 °F /  -13.5 °C 6.0 °F /  -14.4 °C 1013.1 in /  34303.6 hPa NW 1.6 mph /  2.6 km/h 14.5 mph /  23.3 km/h 89 % 0.0 in /  0 mm 127 W/m2
10:10 7.8 °F /  -13.4 °C 5.9 °F /  -14.5 °C 1013.1 in /  34303.6 hPa NW 3.2 mph /  5.1 km/h 12.9 mph /  20.8 km/h 88 % 0.0 in /  0 mm 134 W/m2
10:15 7.8 °F /  -13.4 °C 6.0 °F /  -14.4 °C 1013.1 in /  34303.6 hPa Calm   12.9 mph /  20.8 km/h 88 % 0.0 in /  0 mm 195 W/m2
10:25 8.1 °F /  -13.3 °C 6.0 °F /  -14.4 °C 1013.4 in /  34313.7 hPa Calm   12.9 mph /  20.8 km/h 87 % 0.0 in /  0 mm 114 W/m2
10:30 8.0 °F /  -13.3 °C 5.8 °F /  -14.6 °C 1013.4 in /  34313.7 hPa WNW 4.8 mph /  7.7 km/h 19.3 mph /  31.1 km/h 86 % 0.0 in /  0 mm 139 W/m2
10:35 8.0 °F /  -13.3 °C 6.0 °F /  -14.4 °C 1013.4 in /  34313.7 hPa WNW 8.0 mph /  12.9 km/h 19.3 mph /  31.1 km/h 87 % 0.0 in /  0 mm 162 W/m2
10:40 8.2 °F /  -13.2 °C 6.1 °F /  -14.4 °C 1013.4 in /  34313.7 hPa WNW 6.4 mph /  10.3 km/h 16.1 mph /  25.9 km/h 87 % 0.0 in /  0 mm 183 W/m2
10:45 8.3 °F /  -13.2 °C 6.1 °F /  -14.4 °C 1013.4 in /  34313.7 hPa NNW 6.4 mph /  10.3 km/h 16.1 mph /  25.9 km/h 86 % 0.0 in /  0 mm 265 W/m2
10:50 8.5 °F /  -13.1 °C 6.3 °F /  -14.3 °C 1013.4 in /  34313.7 hPa NW 1.6 mph /  2.6 km/h 14.5 mph /  23.3 km/h 86 % 0.0 in /  0 mm 253 W/m2
10:55 8.6 °F /  -13 °C 6.1 °F /  -14.4 °C 1013.4 in /  34313.7 hPa WNW 8.0 mph /  12.9 km/h 16.1 mph /  25.9 km/h 84 % 0.0 in /  0 mm 309 W/m2
11:00 8.6 °F /  -13 °C 6.1 °F /  -14.4 °C 1013.4 in /  34313.7 hPa NW 8.0 mph /  12.9 km/h 16.1 mph /  25.9 km/h 84 % 0.0 in /  0 mm 165 W/m2
11:05 8.5 °F /  -13.1 °C 5.9 °F /  -14.5 °C 1013.4 in /  34313.7 hPa NW 4.8 mph /  7.7 km/h 14.5 mph /  23.3 km/h 84 % 0.0 in /  0 mm 192 W/m2
11:10 8.4 °F /  -13.1 °C 5.9 °F /  -14.5 °C 1013.4 in /  34313.7 hPa WNW 6.4 mph /  10.3 km/h 19.3 mph /  31.1 km/h 84 % 0.0 in /  0 mm 202 W/m2
11:15 8.6 °F /  -13 °C 5.8 °F /  -14.6 °C 1013.4 in /  34313.7 hPa WNW 6.4 mph /  10.3 km/h 20.9 mph /  33.6 km/h 83 % 0.0 in /  0 mm 199 W/m2
11:20 8.7 °F /  -12.9 °C 5.8 °F /  -14.6 °C 1013.4 in /  34313.7 hPa NNW 12.9 mph /  20.8 km/h 20.9 mph /  33.6 km/h 82 % 0.0 in /  0 mm 197 W/m2
11:25 8.9 °F /  -12.8 °C 6.2 °F /  -14.3 °C 1013.4 in /  34313.7 hPa WNW 8.0 mph /  12.9 km/h 20.9 mph /  33.6 km/h 83 % 0.0 in /  0 mm 244 W/m2
11:30 8.9 °F /  -12.8 °C 5.9 °F /  -14.5 °C 1013.4 in /  34313.7 hPa NW 11.3 mph /  18.2 km/h 20.9 mph /  33.6 km/h 81 % 0.0 in /  0 mm 283 W/m2
11:35 9.5 °F /  -12.5 °C 6.6 °F /  -14.1 °C 1013.4 in /  34313.7 hPa NNW 16.1 mph /  25.9 km/h 20.9 mph /  33.6 km/h 82 % 0.0 in /  0 mm 304 W/m2
11:40 9.9 °F /  -12.3 °C 6.5 °F /  -14.2 °C 1013.4 in /  34313.7 hPa NNW 8.0 mph /  12.9 km/h 19.3 mph /  31.1 km/h 79 % 0.0 in /  0 mm 464 W/m2
11:45 9.8 °F /  -12.3 °C 5.8 °F /  -14.6 °C 1013.4 in /  34313.7 hPa WNW 12.9 mph /  20.8 km/h 19.3 mph /  31.1 km/h 76 % 0.0 in /  0 mm 250 W/m2
11:50 9.3 °F /  -12.6 °C 5.3 °F /  -14.8 °C 1013.4 in /  34313.7 hPa NW 8.0 mph /  12.9 km/h 19.3 mph /  31.1 km/h 76 % 0.0 in /  0 mm 195 W/m2
11:55 9.3 °F /  -12.6 °C 5.6 °F /  -14.7 °C 1013.4 in /  34313.7 hPa WNW 9.7 mph /  15.6 km/h 19.3 mph /  31.1 km/h 78 % 0.0 in /  0 mm 482 W/m2
12:00 9.9 °F /  -12.3 °C 5.9 °F /  -14.5 °C 1013.4 in /  34313.7 hPa NNW 4.8 mph /  7.7 km/h 17.7 mph /  28.5 km/h 76 % 0.0 in /  0 mm 445 W/m2
12:05 10.3 °F /  -12.1 °C 5.9 °F /  -14.5 °C 1013.4 in /  34313.7 hPa WNW 11.3 mph /  18.2 km/h 25.7 mph /  41.4 km/h 74 % 0.0 in /  0 mm 520 W/m2
12:10 10.3 °F /  -12.1 °C 5.9 °F /  -14.5 °C 1013.4 in /  34313.7 hPa WNW 17.7 mph /  28.5 km/h 25.7 mph /  41.4 km/h 74 % 0.0 in /  0 mm 538 W/m2
12:15 10.4 °F /  -12 °C 5.8 °F /  -14.6 °C 1013.4 in /  34313.7 hPa NW 14.5 mph /  23.3 km/h 25.7 mph /  41.4 km/h 73 % 0.0 in /  0 mm 462 W/m2
12:20 10.5 °F /  -11.9 °C 5.9 °F /  -14.5 °C 1013.4 in /  34313.7 hPa WNW 12.9 mph /  20.8 km/h 25.7 mph /  41.4 km/h 73 % 0.0 in /  0 mm 504 W/m2
12:25 10.3 °F /  -12.1 °C 5.8 °F /  -14.6 °C 1013.4 in /  34313.7 hPa NW 11.3 mph /  18.2 km/h 20.9 mph /  33.6 km/h 74 % 0.0 in /  0 mm 299 W/m2
12:30 10.1 °F /  -12.2 °C 5.7 °F /  -14.6 °C 1013.4 in /  34313.7 hPa WNW 17.7 mph /  28.5 km/h 24.1 mph /  38.8 km/h 74 % 0.0 in /  0 mm 258 W/m2
12:35 10.1 °F /  -12.2 °C 5.8 °F /  -14.6 °C 1013.4 in /  34313.7 hPa WNW 6.4 mph /  10.3 km/h 24.1 mph /  38.8 km/h 75 % 0.0 in /  0 mm 262 W/m2
12:40 9.9 °F /  -12.3 °C 5.3 °F /  -14.8 °C 1013.4 in /  34313.7 hPa NW 8.0 mph /  12.9 km/h 25.7 mph /  41.4 km/h 73 % 0.0 in /  0 mm 295 W/m2
12:45 9.9 °F /  -12.3 °C 5.3 °F /  -14.8 °C 1013.4 in /  34313.7 hPa NW 9.7 mph /  15.6 km/h 25.7 mph /  41.4 km/h 73 % 0.0 in /  0 mm 262 W/m2
12:50 9.9 °F /  -12.3 °C 5.7 °F /  -14.6 °C 1013.4 in /  34313.7 hPa NW 6.4 mph /  10.3 km/h 25.7 mph /  41.4 km/h 75 % 0.0 in /  0 mm 218 W/m2
12:55 9.8 °F /  -12.3 °C 5.6 °F /  -14.7 °C 1013.4 in /  34313.7 hPa NNW 9.7 mph /  15.6 km/h 20.9 mph /  33.6 km/h 75 % 0.0 in /  0 mm 223 W/m2
13:00 9.8 °F /  -12.3 °C 5.7 °F /  -14.6 °C 1013.4 in /  34313.7 hPa WNW 14.5 mph /  23.3 km/h 20.9 mph /  33.6 km/h 76 % 0.0 in /  0 mm 223 W/m2
13:05 9.8 °F /  -12.3 °C 5.9 °F /  -14.5 °C 1013.4 in /  34313.7 hPa WNW 8.0 mph /  12.9 km/h 20.9 mph /  33.6 km/h 77 % 0.0 in /  0 mm 272 W/m2
13:10 9.9 °F /  -12.3 °C 6.3 °F /  -14.3 °C 1013.4 in /  34313.7 hPa NW 14.5 mph /  23.3 km/h 20.9 mph /  33.6 km/h 78 % 0.0 in /  0 mm 308 W/m2
13:15 9.9 °F /  -12.3 °C 5.9 °F /  -14.5 °C 1013.4 in /  34313.7 hPa WNW 9.7 mph /  15.6 km/h 20.9 mph /  33.6 km/h 76 % 0.0 in /  0 mm 236 W/m2
13:20 9.7 °F /  -12.4 °C 5.7 °F /  -14.6 °C 1013.4 in /  34313.7 hPa West 8.0 mph /  12.9 km/h 24.1 mph /  38.8 km/h 76 % 0.0 in /  0 mm 162 W/m2
13:25 9.6 °F /  -12.4 °C 5.5 °F /  -14.7 °C 1013.4 in /  34313.7 hPa West 6.4 mph /  10.3 km/h 24.1 mph /  38.8 km/h 76 % 0.0 in /  0 mm 111 W/m2
13:30 9.4 °F /  -12.6 °C 5.6 °F /  -14.7 °C 1013.4 in /  34313.7 hPa WNW 9.7 mph /  15.6 km/h 19.3 mph /  31.1 km/h 77 % 0.0 in /  0 mm 114 W/m2
13:35 9.3 °F /  -12.6 °C 5.5 °F /  -14.7 °C 1013.4 in /  34313.7 hPa West 12.9 mph /  20.8 km/h 22.5 mph /  36.2 km/h 77 % 0.0 in /  0 mm 158 W/m2
13:40 9.3 °F /  -12.6 °C 5.5 °F /  -14.7 °C 1013.4 in /  34313.7 hPa WNW 9.7 mph /  15.6 km/h 25.7 mph /  41.4 km/h 77 % 0.0 in /  0 mm 211 W/m2
13:45 9.4 °F /  -12.6 °C 5.4 °F /  -14.8 °C 1013.1 in /  34303.6 hPa West 8.0 mph /  12.9 km/h 25.7 mph /  41.4 km/h 76 % 0.0 in /  0 mm 197 W/m2
13:50 9.7 °F /  -12.4 °C 5.8 °F /  -14.6 °C 1013.1 in /  34303.6 hPa WNW 14.5 mph /  23.3 km/h 25.7 mph /  41.4 km/h 77 % 0.0 in /  0 mm 237 W/m2
13:55 9.7 °F /  -12.4 °C 5.7 °F /  -14.6 °C 1013.1 in /  34303.6 hPa WNW 19.3 mph /  31.1 km/h 24.1 mph /  38.8 km/h 76 % 0.0 in /  0 mm 265 W/m2
14:00 9.8 °F /  -12.3 °C 5.6 °F /  -14.7 °C 1013.1 in /  34303.6 hPa West 16.1 mph /  25.9 km/h 24.1 mph /  38.8 km/h 75 % 0.0 in /  0 mm 274 W/m2
14:05 9.9 °F /  -12.3 °C 5.7 °F /  -14.6 °C 1013.4 in /  34313.7 hPa NW 14.5 mph /  23.3 km/h 24.1 mph /  38.8 km/h 75 % 0.0 in /  0 mm 269 W/m2
14:10 9.8 °F /  -12.3 °C 5.2 °F /  -14.9 °C 1013.1 in /  34303.6 hPa West 16.1 mph /  25.9 km/h 27.4 mph /  44.1 km/h 73 % 0.0 in /  0 mm 171 W/m2
14:15 9.7 °F /  -12.4 °C 5.3 °F /  -14.8 °C 1013.1 in /  34303.6 hPa West 14.5 mph /  23.3 km/h 27.4 mph /  44.1 km/h 74 % 0.0 in /  0 mm 306 W/m2
14:20 10.2 °F /  -12.1 °C 5.4 °F /  -14.8 °C 1013.1 in /  34303.6 hPa NW 17.7 mph /  28.5 km/h 27.4 mph /  44.1 km/h 72 % 0.0 in /  0 mm 554 W/m2
14:25 11.2 °F /  -11.6 °C 6.8 °F /  -14 °C 1013.1 in /  34303.6 hPa WNW 14.5 mph /  23.3 km/h 27.4 mph /  44.1 km/h 74 % 0.0 in /  0 mm 394 W/m2
14:30 10.8 °F /  -11.8 °C 6.2 °F /  -14.3 °C 1013.1 in /  34303.6 hPa NNW 14.5 mph /  23.3 km/h 25.7 mph /  41.4 km/h 73 % 0.0 in /  0 mm 246 W/m2
14:35 10.2 °F /  -12.1 °C 4.9 °F /  -15.1 °C 1013.4 in /  34313.7 hPa West 9.7 mph /  15.6 km/h 22.5 mph /  36.2 km/h 70 % 0.0 in /  0 mm 130 W/m2
14:40 9.7 °F /  -12.4 °C 4.7 °F /  -15.2 °C 1013.4 in /  34313.7 hPa WNW 16.1 mph /  25.9 km/h 27.4 mph /  44.1 km/h 71 % 0.0 in /  0 mm 188 W/m2
14:45 9.6 °F /  -12.4 °C 5.1 °F /  -14.9 °C 1013.4 in /  34313.7 hPa WNW 16.1 mph /  25.9 km/h 27.4 mph /  44.1 km/h 74 % 0.0 in /  0 mm 163 W/m2
14:50 9.3 °F /  -12.6 °C 5.3 °F /  -14.8 °C 1013.4 in /  34313.7 hPa NW 29.0 mph /  46.7 km/h 29.0 mph /  46.7 km/h 76 % 0.0 in /  0 mm 223 W/m2
14:55 9.2 °F /  -12.7 °C 5.5 °F /  -14.7 °C 1013.4 in /  34313.7 hPa West 17.7 mph /  28.5 km/h 29.0 mph /  46.7 km/h 78 % 0.0 in /  0 mm 142 W/m2
15:00 9.1 °F /  -12.7 °C 5.2 °F /  -14.9 °C 1013.4 in /  34313.7 hPa WNW 12.9 mph /  20.8 km/h 29.0 mph /  46.7 km/h 77 % 0.0 in /  0 mm 169 W/m2
15:05 8.9 °F /  -12.8 °C 4.5 °F /  -15.3 °C 1013.4 in /  34313.7 hPa West 14.5 mph /  23.3 km/h 24.1 mph /  38.8 km/h 74 % 0.0 in /  0 mm 153 W/m2
15:10 8.8 °F /  -12.9 °C 4.6 °F /  -15.2 °C 1013.4 in /  34313.7 hPa West 6.4 mph /  10.3 km/h 24.1 mph /  38.8 km/h 75 % 0.0 in /  0 mm 218 W/m2
15:15 8.8 °F /  -12.9 °C 4.8 °F /  -15.1 °C 1013.4 in /  34313.7 hPa NW 6.4 mph /  10.3 km/h 22.5 mph /  36.2 km/h 76 % 0.0 in /  0 mm 167 W/m2
15:20 8.6 °F /  -13 °C 4.4 °F /  -15.3 °C 1013.4 in /  34313.7 hPa NW 6.4 mph /  10.3 km/h 27.4 mph /  44.1 km/h 75 % 0.0 in /  0 mm 114 W/m2
15:25 8.4 °F /  -13.1 °C 4.6 °F /  -15.2 °C 1013.4 in /  34313.7 hPa NW 22.5 mph /  36.2 km/h 32.2 mph /  51.8 km/h 77 % 0.0 in /  0 mm 116 W/m2
15:30 8.3 °F /  -13.2 °C 4.9 °F /  -15.1 °C 1013.8 in /  34327.3 hPa North 8.0 mph /  12.9 km/h 32.2 mph /  51.8 km/h 79 % 0.0 in /  0 mm 111 W/m2
15:35 8.4 °F /  -13.1 °C 5.0 °F /  -15 °C 1013.4 in /  34313.7 hPa NNW 12.9 mph /  20.8 km/h 25.7 mph /  41.4 km/h 79 % 0.0 in /  0 mm 113 W/m2
15:40 8.4 °F /  -13.1 °C 5.0 °F /  -15 °C 1013.8 in /  34327.3 hPa NW 17.7 mph /  28.5 km/h 20.9 mph /  33.6 km/h 79 % 0.0 in /  0 mm 121 W/m2
15:45 8.4 °F /  -13.1 °C 4.8 °F /  -15.1 °C 1013.4 in /  34313.7 hPa NW 11.3 mph /  18.2 km/h 20.9 mph /  33.6 km/h 78 % 0.0 in /  0 mm 121 W/m2
15:50 8.5 °F /  -13.1 °C 5.1 °F /  -14.9 °C 1013.8 in /  34327.3 hPa NW 12.9 mph /  20.8 km/h 20.9 mph /  33.6 km/h 79 % 0.0 in /  0 mm 114 W/m2
15:55 8.5 °F /  -13.1 °C 5.1 °F /  -14.9 °C 1013.4 in /  34313.7 hPa NNW 17.7 mph /  28.5 km/h 17.7 mph /  28.5 km/h 79 % 0.0 in /  0 mm 123 W/m2
16:00 8.4 °F /  -13.1 °C 4.8 °F /  -15.1 °C 1013.4 in /  34313.7 hPa WNW 9.7 mph /  15.6 km/h 17.7 mph /  28.5 km/h 78 % 0.0 in /  0 mm 105 W/m2
16:05 8.4 °F /  -13.1 °C 4.8 °F /  -15.1 °C 1013.4 in /  34313.7 hPa NNW 9.7 mph /  15.6 km/h 17.7 mph /  28.5 km/h 78 % 0.0 in /  0 mm 113 W/m2
16:10 8.3 °F /  -13.2 °C 4.2 °F /  -15.4 °C 1013.8 in /  34327.3 hPa NW 12.9 mph /  20.8 km/h 25.7 mph /  41.4 km/h 75 % 0.0 in /  0 mm 77 W/m2
16:15 8.2 °F /  -13.2 °C 3.9 °F /  -15.6 °C 1013.8 in /  34327.3 hPa WNW 3.2 mph /  5.1 km/h 25.7 mph /  41.4 km/h 74 % 0.0 in /  0 mm 62 W/m2
16:20 8.2 °F /  -13.2 °C 4.0 °F /  -15.6 °C 1013.8 in /  34327.3 hPa NNW 8.0 mph /  12.9 km/h 25.7 mph /  41.4 km/h 75 % 0.0 in /  0 mm 90 W/m2
16:25 8.2 °F /  -13.2 °C 4.2 °F /  -15.4 °C 1013.8 in /  34327.3 hPa NW 6.4 mph /  10.3 km/h 25.7 mph /  41.4 km/h 76 % 0.0 in /  0 mm 104 W/m2
16:30 8.3 °F /  -13.2 °C 4.5 °F /  -15.3 °C 1013.8 in /  34327.3 hPa WNW 9.7 mph /  15.6 km/h 17.7 mph /  28.5 km/h 77 % 0.0 in /  0 mm 86 W/m2
16:35 8.2 °F /  -13.2 °C 4.4 °F /  -15.3 °C 1013.8 in /  34327.3 hPa NW 3.2 mph /  5.1 km/h 17.7 mph /  28.5 km/h 77 % 0.0 in /  0 mm 93 W/m2
16:40 8.3 °F /  -13.2 °C 4.7 °F /  -15.2 °C 1013.8 in /  34327.3 hPa NW 9.7 mph /  15.6 km/h 14.5 mph /  23.3 km/h 78 % 0.0 in /  0 mm 91 W/m2
16:45 8.2 °F /  -13.2 °C 4.6 °F /  -15.2 °C 1013.8 in /  34327.3 hPa Calm   14.5 mph /  23.3 km/h 78 % 0.0 in /  0 mm 93 W/m2
16:50 8.2 °F /  -13.2 °C 4.6 °F /  -15.2 °C 1013.8 in /  34327.3 hPa NW 3.2 mph /  5.1 km/h 12.9 mph /  20.8 km/h 78 % 0.0 in /  0 mm 91 W/m2
16:55 8.2 °F /  -13.2 °C 5.0 °F /  -15 °C 1013.8 in /  34327.3 hPa NW 6.4 mph /  10.3 km/h 11.3 mph /  18.2 km/h 80 % 0.0 in /  0 mm 81 W/m2
17:00 8.2 °F /  -13.2 °C 4.9 °F /  -15.1 °C 1013.8 in /  34327.3 hPa NNW 1.6 mph /  2.6 km/h 9.7 mph /  15.6 km/h 80 % 0.0 in /  0 mm 76 W/m2
17:05 8.1 °F /  -13.3 °C 4.8 °F /  -15.1 °C 1013.8 in /  34327.3 hPa NW 3.2 mph /  5.1 km/h 9.7 mph /  15.6 km/h 80 % 0.0 in /  0 mm 63 W/m2
17:10 7.9 °F /  -13.4 °C 4.8 °F /  -15.1 °C 1013.8 in /  34327.3 hPa North 6.4 mph /  10.3 km/h 9.7 mph /  15.6 km/h 81 % 0.0 in /  0 mm 44 W/m2
17:15 7.6 °F /  -13.6 °C 4.5 °F /  -15.3 °C 1013.8 in /  34327.3 hPa Calm   9.7 mph /  15.6 km/h 81 % 0.0 in /  0 mm 53 W/m2
17:20 7.5 °F /  -13.6 °C 4.8 °F /  -15.1 °C 1013.8 in /  34327.3 hPa NW 4.8 mph /  7.7 km/h 9.7 mph /  15.6 km/h 83 % 0.0 in /  0 mm 56 W/m2
17:25 7.5 °F /  -13.6 °C 4.8 °F /  -15.1 °C 1013.8 in /  34327.3 hPa Calm   9.7 mph /  15.6 km/h 83 % 0.0 in /  0 mm 46 W/m2
17:30 7.6 °F /  -13.6 °C 4.7 °F /  -15.2 °C 1014.1 in /  34337.4 hPa Calm   9.7 mph /  15.6 km/h 82 % 0.0 in /  0 mm 40 W/m2
17:35 7.6 °F /  -13.6 °C 4.9 °F /  -15.1 °C 1014.1 in /  34337.4 hPa NW 6.4 mph /  10.3 km/h 9.7 mph /  15.6 km/h 83 % 0.0 in /  0 mm 28 W/m2
17:40 7.5 °F /  -13.6 °C 5.0 °F /  -15 °C 1014.1 in /  34337.4 hPa WNW 6.4 mph /  10.3 km/h 9.7 mph /  15.6 km/h 84 % 0.0 in /  0 mm 21 W/m2
17:45 7.6 °F /  -13.6 °C 4.7 °F /  -15.2 °C 1014.1 in /  34337.4 hPa NW 4.8 mph /  7.7 km/h 12.9 mph /  20.8 km/h 82 % 0.0 in /  0 mm 26 W/m2
17:50 7.6 °F /  -13.6 °C 4.7 °F /  -15.2 °C 1014.1 in /  34337.4 hPa NW 4.8 mph /  7.7 km/h 12.9 mph /  20.8 km/h 82 % 0.0 in /  0 mm 25 W/m2
17:55 7.4 °F /  -13.7 °C 4.6 °F /  -15.2 °C 1014.1 in /  34337.4 hPa NW 6.4 mph /  10.3 km/h 19.3 mph /  31.1 km/h 82 % 0.0 in /  0 mm 21 W/m2
18:00 7.3 °F /  -13.7 °C 4.4 °F /  -15.3 °C 1014.4 in /  34347.6 hPa North 11.3 mph /  18.2 km/h 19.3 mph /  31.1 km/h 82 % 0.0 in /  0 mm 19 W/m2
18:05 7.1 °F /  -13.8 °C 3.7 °F /  -15.7 °C 1014.4 in /  34347.6 hPa NNW 1.6 mph /  2.6 km/h 17.7 mph /  28.5 km/h 79 % 0.0 in /  0 mm 16 W/m2
18:10 6.9 °F /  -13.9 °C 3.5 °F /  -15.8 °C 1014.4 in /  34347.6 hPa WNW 3.2 mph /  5.1 km/h 22.5 mph /  36.2 km/h 79 % 0.0 in /  0 mm 12 W/m2
18:15 6.7 °F /  -14.1 °C 3.2 °F /  -16 °C 1014.8 in /  34361.1 hPa NW 6.4 mph /  10.3 km/h 22.5 mph /  36.2 km/h 78 % 0.0 in /  0 mm 9 W/m2
18:20 6.6 °F /  -14.1 °C 3.2 °F /  -16 °C 1014.8 in /  34361.1 hPa NNW 17.7 mph /  28.5 km/h 27.4 mph /  44.1 km/h 79 % 0.0 in /  0 mm 5 W/m2
18:25 6.6 °F /  -14.1 °C 3.2 °F /  -16 °C 1014.8 in /  34361.1 hPa NW 11.3 mph /  18.2 km/h 27.4 mph /  44.1 km/h 79 % 0.0 in /  0 mm 0 W/m2
18:30 6.5 °F /  -14.2 °C 3.1 °F /  -16.1 °C 1015.1 in /  34371.3 hPa North 9.7 mph /  15.6 km/h 20.9 mph /  33.6 km/h 79 % 0.0 in /  0 mm 0 W/m2
18:35 6.4 °F /  -14.2 °C 3.1 °F /  -16.1 °C 1015.1 in /  34371.3 hPa NNW 11.3 mph /  18.2 km/h 22.5 mph /  36.2 km/h 79 % 0.0 in /  0 mm 0 W/m2
18:40 6.3 °F /  -14.3 °C 3.1 °F /  -16.1 °C 1015.1 in /  34371.3 hPa NNE 4.8 mph /  7.7 km/h 22.5 mph /  36.2 km/h 80 % 0.0 in /  0 mm 0 W/m2
18:45 6.1 °F /  -14.4 °C 3.1 °F /  -16.1 °C 1015.1 in /  34371.3 hPa NNW 6.4 mph /  10.3 km/h 19.3 mph /  31.1 km/h 81 % 0.0 in /  0 mm 0 W/m2
18:50 5.9 °F /  -14.5 °C 3.0 °F /  -16.1 °C 1015.1 in /  34371.3 hPa North 6.4 mph /  10.3 km/h 19.3 mph /  31.1 km/h 82 % 0.0 in /  0 mm 0 W/m2
18:55 5.8 °F /  -14.6 °C 3.0 °F /  -16.1 °C 1015.5 in /  34384.8 hPa Calm   16.1 mph /  25.9 km/h 82 % 0.0 in /  0 mm 0 W/m2
19:00 5.7 °F /  -14.6 °C 3.0 °F /  -16.1 °C 1015.5 in /  34384.8 hPa NW 6.4 mph /  10.3 km/h 12.9 mph /  20.8 km/h 83 % 0.0 in /  0 mm 0 W/m2
19:05 5.7 °F /  -14.6 °C 2.8 °F /  -16.2 °C 1015.5 in /  34384.8 hPa North 4.8 mph /  7.7 km/h 12.9 mph /  20.8 km/h 82 % 0.0 in /  0 mm 0 W/m2
19:10 5.6 °F /  -14.7 °C 2.9 °F /  -16.2 °C 1015.8 in /  34395 hPa NW 1.6 mph /  2.6 km/h 12.9 mph /  20.8 km/h 83 % 0.0 in /  0 mm 0 W/m2
19:15 5.5 °F /  -14.7 °C 2.8 °F /  -16.2 °C 1015.8 in /  34395 hPa NNW 6.4 mph /  10.3 km/h 12.9 mph /  20.8 km/h 83 % 0.0 in /  0 mm 0 W/m2
19:20 5.3 °F /  -14.8 °C 2.7 °F /  -16.3 °C 1015.8 in /  34395 hPa NW 3.2 mph /  5.1 km/h 12.9 mph /  20.8 km/h 83 % 0.0 in /  0 mm 0 W/m2
19:25 5.3 °F /  -14.8 °C 2.6 °F /  -16.3 °C 1015.8 in /  34395 hPa NW 4.8 mph /  7.7 km/h 12.9 mph /  20.8 km/h 83 % 0.0 in /  0 mm 0 W/m2
19:30 5.0 °F /  -15 °C 2.5 °F /  -16.4 °C 1015.8 in /  34395 hPa NW 6.4 mph /  10.3 km/h 12.9 mph /  20.8 km/h 84 % 0.0 in /  0 mm 0 W/m2
19:35 4.9 °F /  -15.1 °C 2.5 °F /  -16.4 °C 1015.8 in /  34395 hPa NW 3.2 mph /  5.1 km/h 9.7 mph /  15.6 km/h 84 % 0.0 in /  0 mm 0 W/m2
19:40 4.9 °F /  -15.1 °C 2.4 °F /  -16.4 °C 1015.8 in /  34395 hPa WNW 3.2 mph /  5.1 km/h 9.7 mph /  15.6 km/h 84 % 0.0 in /  0 mm 0 W/m2
19:45 4.9 °F /  -15.1 °C 2.4 °F /  -16.4 °C 1016.1 in /  34405.1 hPa Calm   11.3 mph /  18.2 km/h 84 % 0.0 in /  0 mm 0 W/m2
19:50 4.9 °F /  -15.1 °C 2.3 °F /  -16.5 °C 1016.1 in /  34405.1 hPa WNW 3.2 mph /  5.1 km/h 16.1 mph /  25.9 km/h 83 % 0.0 in /  0 mm 0 W/m2
19:55 5.1 °F /  -14.9 °C 2.2 °F /  -16.6 °C 1016.1 in /  34405.1 hPa NW 9.7 mph /  15.6 km/h 16.1 mph /  25.9 km/h 82 % 0.0 in /  0 mm 0 W/m2
20:00 4.8 °F /  -15.1 °C 1.8 °F /  -16.8 °C 1016.1 in /  34405.1 hPa NW 3.2 mph /  5.1 km/h 12.9 mph /  20.8 km/h 81 % 0.0 in /  0 mm 0 W/m2
20:05 4.4 °F /  -15.3 °C 1.5 °F /  -16.9 °C 1016.1 in /  34405.1 hPa NNW 1.6 mph /  2.6 km/h 12.9 mph /  20.8 km/h 81 % 0.0 in /  0 mm 0 W/m2
20:10 4.2 °F /  -15.4 °C 1.4 °F /  -17 °C 1016.5 in /  34418.7 hPa WNW 4.8 mph /  7.7 km/h 12.9 mph /  20.8 km/h 82 % 0.0 in /  0 mm 0 W/m2
20:15 4.1 °F /  -15.5 °C 1.3 °F /  -17.1 °C 1016.5 in /  34418.7 hPa NNW 6.4 mph /  10.3 km/h 11.3 mph /  18.2 km/h 82 % 0.0 in /  0 mm 0 W/m2
20:20 4.1 °F /  -15.5 °C 1.1 °F /  -17.2 °C 1016.5 in /  34418.7 hPa WNW 4.8 mph /  7.7 km/h 22.5 mph /  36.2 km/h 81 % 0.0 in /  0 mm 0 W/m2
20:25 4.2 °F /  -15.4 °C 1.2 °F /  -17.1 °C 1016.8 in /  34428.8 hPa NNW 9.7 mph /  15.6 km/h 22.5 mph /  36.2 km/h 81 % 0.0 in /  0 mm 0 W/m2
20:30 4.1 °F /  -15.5 °C 1.0 °F /  -17.2 °C 1016.8 in /  34428.8 hPa NW 3.2 mph /  5.1 km/h 19.3 mph /  31.1 km/h 80 % 0.0 in /  0 mm 0 W/m2
20:35 4.1 °F /  -15.5 °C 1.1 °F /  -17.2 °C 1016.8 in /  34428.8 hPa NW 3.2 mph /  5.1 km/h 17.7 mph /  28.5 km/h 81 % 0.0 in /  0 mm 0 W/m2
20:40 3.8 °F /  -15.7 °C 0.9 °F /  -17.3 °C 1017.2 in /  34442.4 hPa WNW 4.8 mph /  7.7 km/h 17.7 mph /  28.5 km/h 81 % 0.0 in /  0 mm 0 W/m2
20:45 3.8 °F /  -15.7 °C 1.0 °F /  -17.2 °C 1017.2 in /  34442.4 hPa NNW 6.4 mph /  10.3 km/h 19.3 mph /  31.1 km/h 82 % 0.0 in /  0 mm 0 W/m2
20:50 3.7 °F /  -15.7 °C 0.9 °F /  -17.3 °C 1017.2 in /  34442.4 hPa North 9.7 mph /  15.6 km/h 19.3 mph /  31.1 km/h 82 % 0.0 in /  0 mm 0 W/m2
20:55 3.6 °F /  -15.8 °C 1.0 °F /  -17.2 °C 1017.2 in /  34442.4 hPa WNW 1.6 mph /  2.6 km/h 17.7 mph /  28.5 km/h 83 % 0.0 in /  0 mm 0 W/m2
21:00 3.6 °F /  -15.8 °C 1.2 °F /  -17.1 °C 1017.5 in /  34452.6 hPa NW 14.5 mph /  23.3 km/h 17.7 mph /  28.5 km/h 84 % 0.0 in /  0 mm 0 W/m2
21:05 3.6 °F /  -15.8 °C 1.1 °F /  -17.2 °C 1017.5 in /  34452.6 hPa NNW 3.2 mph /  5.1 km/h 14.5 mph /  23.3 km/h 84 % 0.0 in /  0 mm 0 W/m2
21:10 3.4 °F /  -15.9 °C 1.2 °F /  -17.1 °C 1017.5 in /  34452.6 hPa North 4.8 mph /  7.7 km/h 14.5 mph /  23.3 km/h 85 % 0.0 in /  0 mm 0 W/m2
21:15 3.3 °F /  -15.9 °C 1.0 °F /  -17.2 °C 1017.5 in /  34452.6 hPa WNW 6.4 mph /  10.3 km/h 14.5 mph /  23.3 km/h 85 % 0.0 in /  0 mm 0 W/m2
21:20 3.4 °F /  -15.9 °C 1.3 °F /  -17.1 °C 1017.5 in /  34452.6 hPa WNW 14.5 mph /  23.3 km/h 27.4 mph /  44.1 km/h 86 % 0.0 in /  0 mm 0 W/m2
21:30 3.5 °F /  -15.8 °C 1.2 °F /  -17.1 °C 1017.8 in /  34462.7 hPa Calm   22.5 mph /  36.2 km/h 85 % 0.0 in /  0 mm 0 W/m2
21:35 3.3 °F /  -15.9 °C 1.0 °F /  -17.2 °C 1017.8 in /  34462.7 hPa NW 4.8 mph /  7.7 km/h 19.3 mph /  31.1 km/h 85 % 0.0 in /  0 mm 0 W/m2
21:40 3.1 °F /  -16.1 °C 1.0 °F /  -17.2 °C 1017.8 in /  34462.7 hPa NNW 4.8 mph /  7.7 km/h 16.1 mph /  25.9 km/h 86 % 0.0 in /  0 mm 0 W/m2
21:45 2.9 °F /  -16.2 °C 0.8 °F /  -17.3 °C 1017.8 in /  34462.7 hPa NNW 1.6 mph /  2.6 km/h 16.1 mph /  25.9 km/h 86 % 0.0 in /  0 mm 0 W/m2
21:50 2.8 °F /  -16.2 °C 0.7 °F /  -17.4 °C 1017.8 in /  34462.7 hPa NNW 1.6 mph /  2.6 km/h 16.1 mph /  25.9 km/h 86 % 0.0 in /  0 mm 0 W/m2
21:55 2.7 °F /  -16.3 °C 0.7 °F /  -17.4 °C 1017.8 in /  34462.7 hPa NNW 3.2 mph /  5.1 km/h 16.1 mph /  25.9 km/h 87 % 0.0 in /  0 mm 0 W/m2
22:00 2.5 °F /  -16.4 °C 0.6 °F /  -17.4 °C 1017.8 in /  34462.7 hPa NW 3.2 mph /  5.1 km/h 12.9 mph /  20.8 km/h 87 % 0.0 in /  0 mm 0 W/m2
22:10 2.4 °F /  -16.4 °C 0.6 °F /  -17.4 °C 1018.2 in /  34476.3 hPa NW 4.8 mph /  7.7 km/h 11.3 mph /  18.2 km/h 88 % 0.0 in /  0 mm 0 W/m2
22:15 2.2 °F /  -16.6 °C 0.4 °F /  -17.6 °C 1018.2 in /  34476.3 hPa WNW 3.2 mph /  5.1 km/h 11.3 mph /  18.2 km/h 88 % 0.0 in /  0 mm 0 W/m2
22:20 2.1 °F /  -16.6 °C 0.3 °F /  -17.6 °C 1018.2 in /  34476.3 hPa Calm   11.3 mph /  18.2 km/h 88 % 0.0 in /  0 mm 0 W/m2
22:25 2.2 °F /  -16.6 °C 0.5 °F /  -17.5 °C 1018.2 in /  34476.3 hPa NW 3.2 mph /  5.1 km/h 9.7 mph /  15.6 km/h 89 % 0.0 in /  0 mm 0 W/m2
22:30 2.1 °F /  -16.6 °C 0.5 °F /  -17.5 °C 1018.2 in /  34476.3 hPa WNW 1.6 mph /  2.6 km/h 8.0 mph /  12.9 km/h 89 % 0.0 in /  0 mm 0 W/m2
22:35 2.2 °F /  -16.6 °C 0.5 °F /  -17.5 °C 1018.2 in /  34476.3 hPa NW 3.2 mph /  5.1 km/h 9.7 mph /  15.6 km/h 89 % 0.0 in /  0 mm 0 W/m2
22:40 2.2 °F /  -16.6 °C 0.5 °F /  -17.5 °C 1018.2 in /  34476.3 hPa NW 6.4 mph /  10.3 km/h 9.7 mph /  15.6 km/h 89 % 0.0 in /  0 mm 0 W/m2
22:45 2.1 °F /  -16.6 °C 0.4 °F /  -17.6 °C 1018.5 in /  34486.4 hPa WNW 1.6 mph /  2.6 km/h 9.7 mph /  15.6 km/h 89 % 0.0 in /  0 mm 0 W/m2
22:50 2.0 °F /  -16.7 °C 0.4 °F /  -17.6 °C 1018.5 in /  34486.4 hPa WNW 3.2 mph /  5.1 km/h 8.0 mph /  12.9 km/h 89 % 0.0 in /  0 mm 0 W/m2
22:55 2.1 °F /  -16.6 °C 0.6 °F /  -17.4 °C 1018.5 in /  34486.4 hPa WNW 3.2 mph /  5.1 km/h 8.0 mph /  12.9 km/h 90 % 0.0 in /  0 mm 0 W/m2
23:00 1.8 °F /  -16.8 °C 0.2 °F /  -17.7 °C 1018.5 in /  34486.4 hPa WNW 6.4 mph /  10.3 km/h 8.0 mph /  12.9 km/h 89 % 0.0 in /  0 mm 0 W/m2
23:05 1.6 °F /  -16.9 °C 0.1 °F /  -17.7 °C 1018.5 in /  34486.4 hPa WNW 4.8 mph /  7.7 km/h 8.0 mph /  12.9 km/h 90 % 0.0 in /  0 mm 0 W/m2
23:10 1.6 °F /  -16.9 °C 0.1 °F /  -17.7 °C 1018.5 in /  34486.4 hPa WNW 1.6 mph /  2.6 km/h 11.3 mph /  18.2 km/h 90 % 0.0 in /  0 mm 0 W/m2
23:15 1.7 °F /  -16.8 °C 0.4 °F /  -17.6 °C 1018.5 in /  34486.4 hPa WNW 6.4 mph /  10.3 km/h 11.3 mph /  18.2 km/h 91 % 0.0 in /  0 mm 0 W/m2
23:20 1.8 °F /  -16.8 °C 0.5 °F /  -17.5 °C 1018.5 in /  34486.4 hPa NW 6.4 mph /  10.3 km/h 11.3 mph /  18.2 km/h 91 % 0.0 in /  0 mm 0 W/m2
23:25 1.8 °F /  -16.8 °C 0.5 °F /  -17.5 °C 1018.5 in /  34486.4 hPa WNW 4.8 mph /  7.7 km/h 11.3 mph /  18.2 km/h 91 % 0.0 in /  0 mm 0 W/m2
23:30 2.0 °F /  -16.7 °C 0.8 °F /  -17.3 °C 1018.5 in /  34486.4 hPa NW 3.2 mph /  5.1 km/h 9.7 mph /  15.6 km/h 92 % 0.0 in /  0 mm 0 W/m2
23:35 2.1 °F /  -16.6 °C 0.9 °F /  -17.3 °C 1018.5 in /  34486.4 hPa WNW 3.2 mph /  5.1 km/h 12.9 mph /  20.8 km/h 92 % 0.0 in /  0 mm 0 W/m2
23:40 2.1 °F /  -16.6 °C 0.9 °F /  -17.3 °C 1018.8 in /  34496.6 hPa NW 8.0 mph /  12.9 km/h 12.9 mph /  20.8 km/h 92 % 0.0 in /  0 mm 0 W/m2
23:45 2.1 °F /  -16.6 °C 0.9 °F /  -17.3 °C 1018.8 in /  34496.6 hPa NW 3.2 mph /  5.1 km/h 12.9 mph /  20.8 km/h 92 % 0.0 in /  0 mm 0 W/m2
23:50 2.2 °F /  -16.6 °C 1.1 °F /  -17.2 °C 1018.8 in /  34496.6 hPa NW 8.0 mph /  12.9 km/h 12.9 mph /  20.8 km/h 92 % 0.0 in /  0 mm 0 W/m2
23:55 2.3 °F /  -16.5 °C 1.1 °F /  -17.2 °C 1018.8 in /  34496.6 hPa NW 1.6 mph /  2.6 km/h 9.7 mph /  15.6 km/h 92 % 0.0 in /  0 mm 0 W/m2
Avec l'autorisation de Weather Underground - 1.75 mb